createdAt,value
2017-08-20T00:05:09.482Z,90.90
2017-08-20T00:15:32.126Z,92.25
2017-08-20T00:20:39.261Z,92.29
2017-08-20T00:31:01.055Z,92.05
2017-08-20T00:46:40.452Z,93.02
2017-08-20T00:57:02.278Z,92.57
2017-08-20T01:07:24.150Z,91.83
2017-08-20T01:17:46.776Z,90.79
2017-08-20T01:28:10.998Z,88.49
2017-08-20T01:38:33.774Z,90.16
2017-08-20T01:48:56.385Z,90.28
2017-08-20T01:59:19.168Z,90.10
2017-08-20T02:04:25.070Z,92.09
2017-08-20T02:14:47.023Z,91.01
2017-08-20T02:25:09.126Z,90.53
2017-08-20T02:30:14.911Z,90.98
2017-08-20T02:40:38.098Z,91.35
2017-08-20T02:51:00.787Z,90.80
2017-08-20T03:01:22.669Z,89.32
2017-08-20T03:11:44.970Z,90.33
2017-08-20T03:22:06.728Z,90.59
2017-08-20T03:32:28.607Z,89.76
2017-08-20T03:48:06.742Z,89.73
2017-08-20T03:58:30.182Z,89.21
2017-08-20T04:08:52.227Z,91.09
2017-08-20T04:19:15.196Z,91.27
2017-08-20T04:29:38.006Z,90.39
2017-08-20T04:45:16.701Z,87.72
2017-08-20T04:55:39.276Z,88.45
2017-08-20T05:06:00.998Z,88.80
2017-08-20T05:16:24.769Z,87.90
2017-08-20T05:21:30.652Z,87.38
2017-08-20T05:37:09.450Z,87.57
2017-08-20T05:47:31.316Z,85.75
2017-08-20T05:57:53.883Z,85.92
2017-08-20T06:08:15.880Z,84.72
2017-08-20T06:18:39.383Z,84.38
2017-08-20T06:29:01.417Z,83.39
2017-08-20T06:44:40.187Z,81.68
2017-08-20T06:55:06.091Z,78.09
2017-08-20T07:05:28.049Z,78.11
2017-08-20T07:15:51.395Z,78.40
2017-08-20T07:26:14.896Z,79.36
2017-08-20T07:36:36.805Z,77.94
2017-08-20T07:47:00.102Z,74.67
2017-08-20T07:57:22.605Z,74.60
2017-08-20T08:07:45.172Z,70.03
2017-08-20T08:18:10.933Z,70.17
2017-08-20T08:28:34.517Z,67.78
2017-08-20T08:33:40.329Z,68.54
2017-08-20T08:49:19.091Z,72.63
2017-08-20T08:59:41.986Z,68.14
2017-08-20T09:10:04.598Z,65.62
2017-08-20T09:20:26.258Z,68.04
2017-08-20T09:30:48.424Z,67.53
2017-08-20T09:47:38.919Z,67.89
2017-08-20T09:58:01.559Z,63.24
2017-08-20T10:08:24.186Z,65.78
2017-08-20T10:18:46.597Z,66.80
2017-08-20T10:29:08.419Z,64.24
2017-08-20T10:44:46.219Z,61.10
2017-08-20T10:55:08.061Z,62.94
2017-08-20T11:05:28.829Z,60.69
2017-08-20T11:15:52.557Z,58.18
2017-08-20T11:26:13.147Z,59.38
2017-08-20T11:36:35.767Z,61.45
2017-08-20T11:46:59.042Z,58.74
2017-08-20T11:57:21.634Z,59.01
2017-08-20T12:07:42.361Z,61.20
2017-08-20T12:18:05.084Z,61.87
2017-08-20T12:28:28.029Z,55.70
2017-08-20T12:38:51.387Z,57.52
2017-08-20T12:49:13.957Z,56.55
2017-08-20T12:59:36.723Z,58.94
2017-08-20T13:09:57.741Z,65.74
2017-08-20T13:20:20.310Z,69.42
2017-08-20T13:30:43.194Z,66.54
2017-08-20T13:41:05.983Z,71.17
2017-08-20T13:51:27.936Z,63.12
2017-08-20T14:01:49.848Z,61.36
2017-08-20T14:12:11.743Z,58.29
2017-08-20T14:22:33.501Z,60.32
2017-08-20T14:32:55.525Z,56.47
2017-08-20T14:48:34.893Z,56.02
2017-08-20T14:58:58.567Z,60.40
2017-08-20T15:09:20.427Z,69.38
2017-08-20T15:19:43.066Z,61.10
2017-08-20T15:30:05.085Z,56.74
2017-08-20T15:45:43.185Z,56.59
2017-08-20T15:56:06.605Z,55.57
2017-08-20T16:06:41.298Z,60.90
2017-08-20T16:17:03.287Z,59.46
2017-08-20T16:27:25.275Z,60.86
2017-08-20T16:37:47.204Z,59.90
2017-08-20T16:48:09.119Z,60.71
2017-08-20T16:58:31.735Z,65.58
2017-08-20T17:08:53.587Z,62.66
2017-08-20T17:19:20.244Z,77.19
2017-08-20T17:29:43.029Z,80.52
2017-08-20T17:45:22.130Z,90.54
2017-08-20T17:55:45.595Z,91.85
2017-08-20T18:06:09.548Z,93.01
2017-08-20T18:16:32.424Z,93.26
2017-08-20T18:26:54.213Z,93.40
2017-08-20T18:37:18.463Z,93.55
2017-08-20T18:47:42.340Z,93.33
2017-08-20T18:58:04.656Z,93.71
2017-08-20T19:08:27.514Z,93.56
2017-08-20T19:18:50.042Z,93.68
2017-08-20T19:29:12.860Z,94.17
2017-08-20T19:44:53.816Z,94.26
2017-08-20T19:55:17.914Z,94.84
2017-08-20T20:05:39.787Z,94.77
2017-08-20T20:16:02.453Z,94.79
2017-08-20T20:26:24.512Z,95.03
2017-08-20T20:36:47.170Z,94.27
2017-08-20T20:47:09.959Z,94.25
2017-08-20T20:57:32.699Z,93.65
2017-08-20T21:07:53.758Z,93.53
2017-08-20T21:18:16.471Z,93.73
2017-08-20T21:28:39.080Z,94.29
2017-08-20T21:33:44.901Z,94.58
2017-08-20T21:49:26.129Z,92.96
2017-08-20T21:59:49.079Z,92.80
2017-08-20T22:10:10.900Z,94.21
2017-08-20T22:20:33.772Z,94.18
2017-08-20T22:30:55.687Z,93.12
2017-08-20T22:46:35.392Z,91.60
2017-08-20T22:51:41.212Z,92.02
2017-08-20T23:02:03.091Z,91.55
2017-08-20T23:12:25.127Z,92.35
2017-08-20T23:22:46.261Z,93.58
2017-08-20T23:33:09.058Z,93.32
2017-08-20T23:48:47.847Z,93.52
2017-08-20T23:59:11.340Z,93.57
